LIBN/LCC METAR and TAF weather

Enter ICAO airport designator
Station Type Date Time Source
LIBN METAR 2020/09/23 17:55 UTC NOAA

LIBN 231755Z 16017KT CAVOK 23/22 Q1012 RMK SKC VIS MIN 9999 WIND THR14 16016KT WIND THR32 15015KT BLU


Station Type Date Time Source
LIBN Decoded METAR 2020/09/23 17:55 UTC NOAA

Lecce, Italy (LIBN) 40-14N 018-09E 61M
Sep 23, 2020 - 01:55 PM EDT / 2020.09.23 1755 UTC
Wind: from the SSE (160 degrees) at 20 MPH (17 KT):0
Visibility: greater than 7 mile(s):0
Temperature: 73 F (23 C)
Dew Point: 71 F (22 C)
Relative Humidity: 94%
Pressure (altimeter): 29.88 in. Hg (1012 hPa)
ob: LIBN 231755Z 16017KT CAVOK 23/22 Q1012 RMK SKC VIS MIN 9999 WIND THR14 16016KT WIND THR32 15015KT BLU
cycle: 18

Station Type Date Time Source
LIBN TAF 2020/06/22 12:27 UTC NOAA

TAF TAF LIBN 221100Z 2212/2224 34017KT 9999 SCT030
TEMPO 2212/2217 34017G30KT 6000 RA BKN025

Example: see airport list